createdAt,value
2019-01-31T00:01:51.855Z,-0.44
2019-01-31T00:04:58.229Z,-0.46
2019-01-31T00:07:52.850Z,-0.52
2019-01-31T00:10:42.975Z,-0.47
2019-01-31T00:13:20.179Z,-0.70
2019-01-31T00:16:26.499Z,-0.68
2019-01-31T00:19:30.999Z,-0.33
2019-01-31T00:22:37.320Z,-0.53
2019-01-31T00:25:21.183Z,-0.37
2019-01-31T00:28:23.891Z,-0.31
2019-01-31T00:31:14.262Z,-0.43
2019-01-31T00:34:21.092Z,-0.47
2019-01-31T00:37:06.069Z,-0.63
2019-01-31T00:40:12.408Z,-0.61
2019-01-31T00:43:04.920Z,-0.61
2019-01-31T00:46:28.999Z,-0.55
2019-01-31T00:49:38.192Z,-0.59
2019-01-31T00:52:44.422Z,-0.47
2019-01-31T00:55:34.974Z,-0.57
2019-01-31T00:58:47.348Z,-0.57
2019-01-31T01:02:03.145Z,-2.27
2019-01-31T01:05:24.474Z,-0.68
2019-01-31T01:08:16.104Z,-0.68
2019-01-31T01:11:22.476Z,-0.59
2019-01-31T01:14:28.771Z,-0.60
2019-01-31T01:17:27.942Z,-0.56
2019-01-31T01:20:40.099Z,-0.64
2019-01-31T01:23:46.370Z,-0.70
2019-01-31T01:26:55.607Z,-0.75
2019-01-31T01:30:01.903Z,-0.79
2019-01-31T01:33:08.281Z,-0.51
2019-01-31T01:35:46.886Z,-0.49
2019-01-31T01:39:00.663Z,-0.47
2019-01-31T01:41:40.666Z,-0.55
2019-01-31T01:44:51.438Z,-0.58
2019-01-31T01:47:37.158Z,-0.57
2019-01-31T01:50:31.796Z,-0.54
2019-01-31T01:53:38.062Z,-0.53
2019-01-31T01:56:42.254Z,-0.73
2019-01-31T01:59:47.240Z,-0.70
2019-01-31T02:02:48.384Z,-0.68
2019-01-31T02:06:09.736Z,-0.63
2019-01-31T02:09:30.172Z,-0.64
2019-01-31T02:12:25.318Z,-0.70
2019-01-31T02:15:31.580Z,-0.70
2019-01-31T02:18:15.012Z,-0.66
2019-01-31T02:21:19.058Z,-0.70
2019-01-31T02:24:25.385Z,-0.64
2019-01-31T02:27:31.620Z,-0.63
2019-01-31T02:30:37.901Z,-0.68
2019-01-31T02:33:44.261Z,-0.68
2019-01-31T02:36:59.689Z,-0.63
2019-01-31T02:40:06.014Z,-0.59
2019-01-31T02:42:55.950Z,-0.65
2019-01-31T02:46:26.446Z,-0.68
2019-01-31T02:49:23.242Z,-0.63
2019-01-31T02:52:25.665Z,-0.66
2019-01-31T02:55:20.626Z,-0.63
2019-01-31T02:58:31.067Z,-0.72
2019-01-31T03:01:08.926Z,-0.58
2019-01-31T03:03:48.342Z,-0.53
2019-01-31T03:06:39.876Z,-0.69
2019-01-31T03:09:16.364Z,-0.56
2019-01-31T03:11:56.336Z,-0.57
2019-01-31T03:14:45.797Z,-0.62
2019-01-31T03:18:10.314Z,-0.63
2019-01-31T03:21:24.271Z,-0.57
2019-01-31T03:24:33.541Z,-0.61
2019-01-31T03:27:41.057Z,-0.57
2019-01-31T03:31:03.864Z,-0.63
2019-01-31T03:33:59.734Z,-0.62
2019-01-31T03:37:07.684Z,-0.60
2019-01-31T03:40:16.375Z,-0.55
2019-01-31T03:43:24.601Z,-0.50
2019-01-31T03:46:30.861Z,-0.46
2019-01-31T03:49:30.815Z,-0.48
2019-01-31T03:52:37.060Z,-0.47
2019-01-31T03:55:41.889Z,-0.44
2019-01-31T03:58:20.398Z,-0.47
2019-01-31T04:01:29.637Z,-0.50
2019-01-31T04:04:03.375Z,-0.48
2019-01-31T04:06:34.858Z,-0.50
2019-01-31T04:11:51.500Z,-0.57
2019-01-31T04:14:19.521Z,-0.58
2019-01-31T04:16:47.520Z,-0.59
2019-01-31T04:19:15.480Z,-0.69
2019-01-31T04:21:43.528Z,-0.61
2019-01-31T04:24:11.527Z,-0.54
2019-01-31T04:26:39.522Z,-0.64
2019-01-31T04:29:07.527Z,-0.77
2019-01-31T04:31:35.573Z,-0.74
2019-01-31T04:34:03.804Z,-0.80
2019-01-31T04:36:31.859Z,-0.99
2019-01-31T04:38:59.853Z,-0.85
2019-01-31T04:41:27.864Z,-0.87
2019-01-31T04:43:55.875Z,-1.01
2019-01-31T04:46:23.975Z,-0.99
2019-01-31T04:48:51.940Z,-0.95
2019-01-31T04:51:19.938Z,-1.08
2019-01-31T04:53:47.942Z,-1.11
2019-01-31T04:56:15.991Z,-0.88
2019-01-31T04:58:44.023Z,-0.95
2019-01-31T05:01:12.017Z,-0.98
2019-01-31T05:03:40.026Z,-1.06
2019-01-31T05:06:08.067Z,-0.96
2019-01-31T05:08:36.100Z,-1.00
2019-01-31T05:11:04.153Z,-1.43
2019-01-31T05:13:32.174Z,-1.64
2019-01-31T05:16:03.525Z,-1.99
2019-01-31T05:18:30.040Z,-2.03
2019-01-31T05:20:58.002Z,-1.64
2019-01-31T05:23:26.056Z,-1.31
2019-01-31T05:25:54.086Z,-1.45
2019-01-31T05:28:22.174Z,-1.85
2019-01-31T05:30:50.204Z,-2.00
2019-01-31T05:33:18.480Z,-2.55
2019-01-31T05:35:46.520Z,-2.08
2019-01-31T05:38:17.377Z,-2.11
2019-01-31T05:40:55.239Z,-2.42
2019-01-31T05:43:15.515Z,-2.74
2019-01-31T05:45:43.533Z,-3.01
2019-01-31T05:48:11.702Z,-3.15
2019-01-31T05:50:39.663Z,-3.11
2019-01-31T05:53:07.681Z,-3.14
2019-01-31T05:55:35.745Z,-3.27
2019-01-31T05:58:03.813Z,-3.26
2019-01-31T06:00:36.963Z,-3.48
2019-01-31T06:03:05.015Z,-3.49
2019-01-31T06:05:33.033Z,-3.58
2019-01-31T06:08:01.097Z,-3.56
2019-01-31T06:10:29.105Z,-3.40
2019-01-31T06:12:57.075Z,-2.84
2019-01-31T06:15:25.178Z,-2.84
2019-01-31T06:17:56.728Z,-2.65
2019-01-31T06:20:25.574Z,-2.50
2019-01-31T06:22:53.590Z,-2.56
2019-01-31T06:25:22.034Z,-2.79
2019-01-31T06:27:51.443Z,-2.78
2019-01-31T06:30:19.460Z,-2.62
2019-01-31T06:32:47.565Z,-2.81
2019-01-31T06:35:15.604Z,-3.11
2019-01-31T06:37:43.611Z,-2.95
2019-01-31T06:40:14.230Z,-3.11
2019-01-31T06:42:42.198Z,-3.18
2019-01-31T06:45:12.869Z,-3.19
2019-01-31T06:47:40.899Z,-2.80
2019-01-31T06:50:09.175Z,-3.09
2019-01-31T06:52:37.247Z,-3.14
2019-01-31T06:55:05.911Z,-3.16
2019-01-31T06:57:33.987Z,-3.86
2019-01-31T07:00:02.101Z,-3.62
2019-01-31T07:02:30.185Z,-3.81
2019-01-31T07:04:58.303Z,-3.90
2019-01-31T07:07:26.382Z,-3.61
2019-01-31T07:09:54.423Z,-4.06
2019-01-31T07:12:22.983Z,-4.21
2019-01-31T07:14:51.033Z,-3.58
2019-01-31T07:17:18.913Z,-3.77
2019-01-31T07:19:47.047Z,-3.81
2019-01-31T07:22:15.048Z,-3.80
2019-01-31T07:24:43.086Z,-4.05
2019-01-31T07:27:11.108Z,-4.33
2019-01-31T07:29:39.160Z,-4.46
2019-01-31T07:32:07.225Z,-4.21
2019-01-31T07:34:35.372Z,-3.93
2019-01-31T07:37:03.473Z,-4.21
2019-01-31T07:39:31.526Z,-4.23
2019-01-31T07:41:59.713Z,-4.39
2019-01-31T07:44:27.776Z,-4.14
2019-01-31T07:46:55.876Z,-4.15
2019-01-31T07:49:23.892Z,-4.35
2019-01-31T07:51:51.946Z,-4.16
2019-01-31T07:54:20.073Z,-4.40
2019-01-31T07:56:48.170Z,-4.48
2019-01-31T07:59:16.375Z,-4.51
2019-01-31T08:01:44.422Z,-4.51
2019-01-31T08:04:12.489Z,-4.45
2019-01-31T08:06:40.497Z,-4.12
2019-01-31T08:09:10.121Z,-4.08
2019-01-31T08:11:38.092Z,-4.02
2019-01-31T08:14:06.233Z,-3.95
2019-01-31T08:16:34.409Z,-3.90
2019-01-31T08:19:02.593Z,-3.76
2019-01-31T08:21:30.933Z,-3.64
2019-01-31T08:23:59.073Z,-3.44
2019-01-31T08:26:27.144Z,-3.27
2019-01-31T08:28:55.264Z,-3.14
2019-01-31T08:31:23.403Z,-3.06
2019-01-31T08:33:51.515Z,-2.97
2019-01-31T08:36:19.814Z,-2.86
2019-01-31T08:38:47.829Z,-2.69
2019-01-31T08:41:15.886Z,-2.53
2019-01-31T08:43:46.645Z,-2.42
2019-01-31T08:46:14.522Z,-2.27
2019-01-31T08:48:42.901Z,-2.13
2019-01-31T08:51:11.014Z,-1.99
2019-01-31T08:53:39.043Z,-1.80
2019-01-31T08:56:07.102Z,-1.67
2019-01-31T08:58:35.244Z,-1.58
2019-01-31T09:01:03.566Z,-1.40
2019-01-31T09:03:31.804Z,-1.27
2019-01-31T09:05:59.942Z,-1.28
2019-01-31T09:08:28.130Z,-1.35
2019-01-31T09:10:56.229Z,-1.05
2019-01-31T09:13:26.586Z,-1.02
2019-01-31T09:15:54.736Z,-1.01
2019-01-31T09:18:22.853Z,-0.85
2019-01-31T09:21:12.359Z,-0.79
2019-01-31T09:24:11.811Z,-0.61
2019-01-31T09:27:18.085Z,-0.53
2019-01-31T09:30:24.402Z,-0.37
2019-01-31T09:33:46.146Z,-0.40
2019-01-31T09:36:41.243Z,-0.38
2019-01-31T09:39:38.197Z,-0.38
2019-01-31T09:42:28.607Z,-0.47
2019-01-31T09:45:32.562Z,-0.52
2019-01-31T09:48:32.848Z,-0.51
2019-01-31T09:51:42.318Z,-0.37
2019-01-31T09:54:55.105Z,-0.41
2019-01-31T09:58:01.455Z,-0.26
2019-01-31T10:01:02.523Z,-0.20
2019-01-31T10:03:55.929Z,-0.15
2019-01-31T10:07:02.980Z,-0.08
2019-01-31T10:10:11.445Z,-0.07
2019-01-31T10:13:12.432Z,0.17
2019-01-31T10:16:11.272Z,0.35
2019-01-31T10:19:06.698Z,0.68
2019-01-31T10:22:03.698Z,1.05
2019-01-31T10:25:18.804Z,0.91
2019-01-31T10:28:30.529Z,0.76
2019-01-31T10:31:38.488Z,0.58
2019-01-31T10:34:46.229Z,0.77
2019-01-31T10:37:37.647Z,0.89
2019-01-31T10:40:52.913Z,0.63
2019-01-31T10:43:37.321Z,0.91
2019-01-31T10:46:39.656Z,1.02
2019-01-31T10:49:21.353Z,0.92
2019-01-31T10:52:36.695Z,0.84
2019-01-31T10:55:39.554Z,0.83
2019-01-31T10:58:51.665Z,-1.53
2019-01-31T11:01:31.901Z,1.03
2019-01-31T11:04:28.507Z,1.02
2019-01-31T11:07:40.768Z,0.99
2019-01-31T11:10:47.140Z,1.27
2019-01-31T11:13:47.015Z,1.53
2019-01-31T11:16:37.929Z,1.33
2019-01-31T11:19:56.198Z,1.45
2019-01-31T11:23:04.206Z,1.82
2019-01-31T11:26:13.470Z,1.98
2019-01-31T11:29:15.874Z,2.26
2019-01-31T11:32:14.645Z,2.38
2019-01-31T11:35:20.023Z,2.40
2019-01-31T11:37:58.788Z,2.28
2019-01-31T11:41:05.169Z,2.29
2019-01-31T11:44:18.227Z,2.29
2019-01-31T11:47:17.226Z,2.34
2019-01-31T11:50:22.421Z,2.52
2019-01-31T11:53:28.722Z,2.39
2019-01-31T11:56:22.675Z,2.46
2019-01-31T11:59:05.308Z,2.50
2019-01-31T12:01:34.502Z,2.68
2019-01-31T12:04:21.858Z,2.66
2019-01-31T12:06:50.607Z,2.70
2019-01-31T12:09:21.967Z,2.78
2019-01-31T12:11:50.395Z,2.89
2019-01-31T12:14:19.002Z,2.87
2019-01-31T12:16:47.400Z,2.98
2019-01-31T12:19:15.484Z,2.92
2019-01-31T12:21:43.481Z,3.07
2019-01-31T12:24:16.440Z,3.13
2019-01-31T12:26:41.635Z,3.27
2019-01-31T12:29:09.808Z,3.23
2019-01-31T12:31:37.863Z,3.21
2019-01-31T12:34:05.908Z,3.34
2019-01-31T12:36:34.064Z,3.36
2019-01-31T12:39:02.800Z,3.28
2019-01-31T12:41:31.023Z,3.42
2019-01-31T12:43:59.178Z,3.32
2019-01-31T12:46:27.249Z,3.46
2019-01-31T12:48:55.389Z,3.55
2019-01-31T12:51:23.581Z,3.71
2019-01-31T12:53:51.628Z,3.77
2019-01-31T12:56:19.740Z,3.72
2019-01-31T12:58:47.936Z,3.56
2019-01-31T13:01:16.044Z,3.80
2019-01-31T13:03:44.061Z,3.75
2019-01-31T13:06:12.356Z,3.19
2019-01-31T13:08:40.638Z,3.66
2019-01-31T13:11:08.640Z,3.65
2019-01-31T13:13:45.954Z,3.60
2019-01-31T13:16:06.813Z,3.13
2019-01-31T13:18:34.932Z,3.17
2019-01-31T13:21:02.970Z,3.44
2019-01-31T13:23:31.043Z,3.48
2019-01-31T13:25:59.170Z,3.59
2019-01-31T13:28:27.258Z,3.62
2019-01-31T13:30:55.577Z,3.57
2019-01-31T13:33:24.114Z,3.52
2019-01-31T13:35:52.226Z,3.59
2019-01-31T13:38:20.441Z,3.48
2019-01-31T13:40:48.458Z,3.33
2019-01-31T13:43:16.730Z,3.44
2019-01-31T13:45:44.949Z,3.42
2019-01-31T13:48:15.033Z,3.27
2019-01-31T13:50:43.113Z,3.30
2019-01-31T13:53:11.246Z,3.21
2019-01-31T13:55:39.380Z,3.25
2019-01-31T13:58:10.062Z,3.18
2019-01-31T14:00:37.440Z,3.06
2019-01-31T14:03:05.787Z,3.09
2019-01-31T14:05:33.982Z,3.16
2019-01-31T14:08:02.159Z,3.01
2019-01-31T14:10:30.272Z,3.11
2019-01-31T14:12:58.434Z,3.19
2019-01-31T14:15:45.649Z,3.03
2019-01-31T14:18:14.008Z,2.82
2019-01-31T14:20:42.099Z,2.99
2019-01-31T14:23:10.236Z,2.98
2019-01-31T14:25:38.538Z,2.82
2019-01-31T14:28:06.712Z,2.85
2019-01-31T14:30:36.708Z,2.86
2019-01-31T14:33:26.011Z,2.91
2019-01-31T14:35:54.642Z,2.85
2019-01-31T14:38:22.685Z,2.90
2019-01-31T14:40:50.842Z,2.63
2019-01-31T14:43:18.841Z,2.72
2019-01-31T14:45:46.839Z,2.75
2019-01-31T14:48:14.924Z,2.88
2019-01-31T14:50:43.001Z,2.88
2019-01-31T14:53:11.343Z,2.79
2019-01-31T14:55:39.421Z,2.76
2019-01-31T14:58:09.638Z,2.65
2019-01-31T15:00:37.899Z,2.77
2019-01-31T15:03:06.347Z,2.73
2019-01-31T15:05:36.770Z,2.73
2019-01-31T15:08:04.384Z,2.70
2019-01-31T15:10:33.253Z,2.73
2019-01-31T15:13:01.498Z,2.65
2019-01-31T15:15:29.674Z,2.56
2019-01-31T15:17:57.727Z,2.53
2019-01-31T15:20:40.210Z,2.44
2019-01-31T15:23:08.415Z,2.50
2019-01-31T15:25:36.608Z,2.50
2019-01-31T15:28:05.115Z,2.50
2019-01-31T15:30:34.258Z,2.46
2019-01-31T15:33:03.194Z,2.46
2019-01-31T15:35:31.430Z,2.25
2019-01-31T15:37:59.711Z,2.43
2019-01-31T15:40:30.891Z,2.52
2019-01-31T15:42:58.876Z,2.54
2019-01-31T15:45:27.230Z,2.54
2019-01-31T15:47:56.580Z,2.43
2019-01-31T15:50:25.153Z,2.36
2019-01-31T15:52:53.214Z,2.36
2019-01-31T15:55:21.776Z,2.28
2019-01-31T15:57:49.909Z,2.27
2019-01-31T16:00:32.587Z,2.25
2019-01-31T16:03:00.756Z,2.31
2019-01-31T16:05:28.897Z,2.30
2019-01-31T16:07:57.230Z,2.18
2019-01-31T16:10:25.393Z,2.26
2019-01-31T16:12:53.638Z,2.24
2019-01-31T16:15:21.782Z,1.99
2019-01-31T16:17:52.450Z,2.19
2019-01-31T16:20:19.806Z,2.16
2019-01-31T16:22:48.879Z,2.11
2019-01-31T16:25:17.056Z,2.17
2019-01-31T16:27:45.430Z,2.15
2019-01-31T16:30:14.108Z,2.13
2019-01-31T16:32:42.558Z,2.01
2019-01-31T16:35:12.296Z,1.94
2019-01-31T16:37:40.605Z,1.96
2019-01-31T16:40:10.998Z,1.96
2019-01-31T16:42:39.557Z,1.92
2019-01-31T16:45:09.773Z,1.93
2019-01-31T16:47:37.815Z,1.82
2019-01-31T16:50:08.407Z,1.86
2019-01-31T16:52:37.052Z,1.83
2019-01-31T16:55:06.310Z,1.82
2019-01-31T16:57:34.454Z,1.79
2019-01-31T17:00:02.594Z,1.70
2019-01-31T17:02:30.718Z,1.66
2019-01-31T17:04:58.906Z,1.55
2019-01-31T17:07:27.050Z,1.56
2019-01-31T17:09:55.303Z,1.53
2019-01-31T17:12:23.465Z,1.55
2019-01-31T17:14:51.844Z,1.38
2019-01-31T17:17:20.344Z,1.41
2019-01-31T17:19:48.452Z,1.43
2019-01-31T17:22:16.531Z,1.42
2019-01-31T17:24:44.750Z,1.42
2019-01-31T17:27:12.929Z,1.37
2019-01-31T17:29:41.472Z,1.36
2019-01-31T17:32:09.627Z,1.36
2019-01-31T17:34:37.802Z,1.28
2019-01-31T17:37:06.344Z,1.24
2019-01-31T17:39:34.530Z,1.41
2019-01-31T17:42:04.347Z,1.41
2019-01-31T17:44:32.910Z,1.40
2019-01-31T17:47:01.550Z,1.37
2019-01-31T17:49:29.981Z,1.31
2019-01-31T17:54:32.363Z,1.26
2019-01-31T17:57:01.813Z,1.27
2019-01-31T17:59:32.334Z,1.20
2019-01-31T18:02:00.859Z,1.19
2019-01-31T18:04:28.960Z,1.23
2019-01-31T18:06:57.092Z,1.18
2019-01-31T18:09:25.258Z,1.07
2019-01-31T18:11:53.375Z,1.13
2019-01-31T18:14:21.584Z,1.04
2019-01-31T18:16:50.010Z,1.15
2019-01-31T18:19:18.370Z,1.14
2019-01-31T18:21:46.689Z,1.09
2019-01-31T18:24:15.043Z,1.12
2019-01-31T18:26:43.846Z,0.99
2019-01-31T18:29:12.267Z,1.00
2019-01-31T18:31:40.576Z,0.99
2019-01-31T18:34:09.557Z,1.03
2019-01-31T18:36:38.609Z,0.97
2019-01-31T18:39:10.544Z,0.95
2019-01-31T18:41:39.686Z,1.01
2019-01-31T18:44:08.140Z,1.01
2019-01-31T18:46:37.112Z,0.99
2019-01-31T18:49:08.482Z,0.99
2019-01-31T18:51:37.513Z,0.98
2019-01-31T18:54:06.945Z,1.03
2019-01-31T18:56:36.698Z,0.98
2019-01-31T18:59:05.350Z,0.95
2019-01-31T19:01:34.681Z,0.98
2019-01-31T19:04:03.753Z,0.88
2019-01-31T19:06:34.950Z,0.88
2019-01-31T19:09:05.581Z,0.93
2019-01-31T19:11:34.511Z,0.88
2019-01-31T19:14:03.753Z,0.95
2019-01-31T19:16:32.495Z,0.87
2019-01-31T19:19:01.445Z,0.89
2019-01-31T19:21:30.909Z,0.89
2019-01-31T19:23:59.354Z,0.75
2019-01-31T19:26:27.655Z,0.86
2019-01-31T19:28:57.468Z,0.82
2019-01-31T19:31:27.128Z,0.82
2019-01-31T19:33:57.446Z,0.94
2019-01-31T19:36:31.062Z,0.90
2019-01-31T19:39:01.076Z,0.84
2019-01-31T19:41:31.034Z,0.88
2019-01-31T19:44:00.465Z,0.78
2019-01-31T19:46:29.602Z,0.79
2019-01-31T19:48:59.000Z,0.80
2019-01-31T19:51:28.586Z,0.81
2019-01-31T19:53:58.175Z,0.83
2019-01-31T19:56:27.245Z,0.78
2019-01-31T19:58:56.759Z,0.69
2019-01-31T20:01:25.602Z,0.72
2019-01-31T20:03:54.714Z,0.69
2019-01-31T20:06:24.635Z,0.67
2019-01-31T20:08:53.893Z,0.69
2019-01-31T20:11:23.268Z,0.68
2019-01-31T20:13:52.367Z,0.68
2019-01-31T20:16:29.193Z,0.73
2019-01-31T20:18:53.412Z,0.60
2019-01-31T20:21:23.375Z,0.69
2019-01-31T20:23:53.045Z,0.74
2019-01-31T20:26:21.858Z,0.76
2019-01-31T20:28:53.524Z,0.67
2019-01-31T20:31:23.062Z,0.79
2019-01-31T20:33:53.788Z,0.68
2019-01-31T20:36:21.994Z,0.81
2019-01-31T20:38:51.402Z,0.82
2019-01-31T20:41:20.261Z,0.74
2019-01-31T20:43:49.284Z,0.89
2019-01-31T20:46:18.437Z,0.75
2019-01-31T20:48:48.123Z,0.56
2019-01-31T20:51:17.285Z,0.53
2019-01-31T20:53:45.925Z,0.58
2019-01-31T20:56:15.063Z,0.54
2019-01-31T20:58:44.810Z,0.54
2019-01-31T21:01:13.619Z,0.57
2019-01-31T21:03:42.191Z,0.58
2019-01-31T21:06:11.220Z,0.58
2019-01-31T21:08:40.599Z,0.61
2019-01-31T21:11:10.082Z,0.49
2019-01-31T21:13:40.369Z,0.49
2019-01-31T21:16:10.099Z,0.50
2019-01-31T21:18:39.047Z,0.51
2019-01-31T21:21:08.272Z,0.46
2019-01-31T21:23:37.901Z,0.47
2019-01-31T21:26:06.743Z,0.51
2019-01-31T21:28:35.698Z,0.52
2019-01-31T21:31:04.756Z,0.47
2019-01-31T21:33:33.457Z,0.46
2019-01-31T21:36:01.756Z,0.49
2019-01-31T21:38:30.328Z,0.49
2019-01-31T21:40:58.881Z,0.47
2019-01-31T21:43:27.102Z,0.41
2019-01-31T21:45:55.348Z,0.36
2019-01-31T21:48:23.470Z,0.31
2019-01-31T21:50:51.911Z,0.29
2019-01-31T21:53:21.327Z,0.26
2019-01-31T21:55:50.040Z,0.19
2019-01-31T21:58:18.826Z,0.23
2019-01-31T22:00:47.109Z,0.18
2019-01-31T22:03:15.483Z,0.09
2019-01-31T22:05:45.609Z,0.15
2019-01-31T22:08:14.367Z,0.13
2019-01-31T22:10:42.577Z,0.10
2019-01-31T22:13:10.737Z,0.03
2019-01-31T22:15:38.854Z,-0.11
2019-01-31T22:18:07.376Z,-0.12
2019-01-31T22:20:35.412Z,-0.06
2019-01-31T22:23:03.690Z,-0.15
2019-01-31T22:25:31.929Z,-0.13
2019-01-31T22:28:00.329Z,-0.16
2019-01-31T22:30:30.729Z,-0.22
2019-01-31T22:32:58.927Z,-0.26
2019-01-31T22:35:27.066Z,-0.32
2019-01-31T22:37:55.058Z,-0.31
2019-01-31T22:40:23.172Z,-0.33
2019-01-31T22:42:53.217Z,-0.25
2019-01-31T22:45:33.714Z,-0.45
2019-01-31T22:48:01.836Z,-0.41
2019-01-31T22:50:32.190Z,-0.51
2019-01-31T22:53:00.256Z,-0.45
2019-01-31T22:55:28.393Z,-0.54
2019-01-31T22:57:56.419Z,-0.59
2019-01-31T23:01:02.769Z,-0.73
2019-01-31T23:03:30.816Z,-0.86
2019-01-31T23:05:58.878Z,-0.69
2019-01-31T23:08:26.869Z,-1.06
2019-01-31T23:10:55.007Z,-0.84
2019-01-31T23:13:23.031Z,-0.76
2019-01-31T23:15:51.078Z,-0.86
2019-01-31T23:18:19.244Z,-0.85
2019-01-31T23:20:47.255Z,-0.87
2019-01-31T23:23:15.309Z,-0.99
2019-01-31T23:25:43.434Z,-1.11
2019-01-31T23:28:11.484Z,-1.14
2019-01-31T23:30:39.546Z,-1.05
2019-01-31T23:33:07.588Z,-1.13
2019-01-31T23:35:35.746Z,-1.17
2019-01-31T23:38:03.824Z,-1.46
2019-01-31T23:40:32.019Z,-1.32
2019-01-31T23:43:00.139Z,-1.32
2019-01-31T23:45:28.175Z,-1.41
2019-01-31T23:47:56.188Z,-1.40
2019-01-31T23:50:24.188Z,-1.41
2019-01-31T23:52:52.275Z,-1.41
2019-01-31T23:55:20.325Z,-1.53
2019-01-31T23:57:48.391Z,-1.49
